createdAt,value
2023-04-02T00:01:46.542Z,99371.06
2023-04-02T00:05:13.942Z,99363.16
2023-04-02T00:08:45.507Z,99373.97
2023-04-02T00:12:00.524Z,99376.50
2023-04-02T00:15:12.490Z,99376.50
2023-04-02T00:18:28.553Z,99371.44
2023-04-02T00:21:45.500Z,99372.53
2023-04-02T00:24:55.611Z,99376.00
2023-04-02T00:28:11.526Z,99379.66
2023-04-02T00:31:21.254Z,99379.47
2023-04-02T00:34:35.517Z,99370.66
2023-04-02T00:37:44.720Z,99368.47
2023-04-02T00:41:02.479Z,99373.81
2023-04-02T00:44:11.492Z,99372.22
2023-04-02T00:47:33.538Z,99370.91
2023-04-02T00:50:47.493Z,99376.13
2023-04-02T00:54:16.533Z,99380.88
2023-04-02T00:57:27.030Z,99380.09
2023-04-02T01:00:39.514Z,99385.13
2023-04-02T01:04:06.502Z,99378.22
2023-04-02T01:07:11.231Z,99385.31
2023-04-02T01:10:44.503Z,99382.44
2023-04-02T01:14:08.312Z,99384.84
2023-04-02T01:17:40.544Z,99384.03
2023-04-02T01:21:22.513Z,99376.13
2023-04-02T01:24:29.945Z,99390.38
2023-04-02T01:28:03.722Z,99383.72
2023-04-02T01:31:18.623Z,99395.25
2023-04-02T01:34:30.505Z,99392.56
2023-04-02T01:38:10.554Z,99391.28
2023-04-02T01:41:56.497Z,99390.97
2023-04-02T01:45:10.749Z,99400.09
2023-04-02T01:48:30.514Z,99395.34
2023-04-02T01:51:41.495Z,99405.09
2023-04-02T01:55:03.509Z,99418.00
2023-04-02T01:58:20.500Z,99418.00
2023-04-02T02:01:42.553Z,99423.53
2023-04-02T02:09:13.468Z,99420.72
2023-04-02T02:12:22.649Z,99404.13
2023-04-02T02:15:40.488Z,99402.38
2023-04-02T02:18:42.865Z,99425.56
2023-04-02T02:22:01.631Z,99417.53
2023-04-02T02:25:28.512Z,99413.25
2023-04-02T02:28:48.493Z,99419.09
2023-04-02T02:32:02.540Z,99430.09
2023-04-02T02:35:26.391Z,99426.62
2023-04-02T02:38:40.511Z,99430.09
2023-04-02T02:42:07.527Z,99429.31
2023-04-02T02:45:26.507Z,99429.13
2023-04-02T02:48:45.538Z,99432.62
2023-04-02T02:52:01.490Z,99419.03
2023-04-02T02:55:24.521Z,99426.75
2023-04-02T02:58:41.517Z,99429.63
2023-04-02T03:01:50.726Z,99425.34
2023-04-02T03:05:05.510Z,99432.09
2023-04-02T03:08:30.543Z,99428.81
2023-04-02T03:12:01.508Z,99429.31
2023-04-02T03:15:34.382Z,99432.78
2023-04-02T03:18:58.521Z,99437.66
2023-04-02T03:22:16.204Z,99432.72
2023-04-02T03:26:02.520Z,99429.25
2023-04-02T03:29:25.553Z,99429.84
2023-04-02T03:32:50.524Z,99432.72
2023-04-02T03:35:59.894Z,99433.31
2023-04-02T03:39:29.526Z,99440.88
2023-04-02T03:42:58.525Z,99432.94
2023-04-02T03:46:36.528Z,99425.03
2023-04-02T03:50:06.509Z,99433.84
2023-04-02T03:53:21.504Z,99445.47
2023-04-02T03:56:37.495Z,99436.16
2023-04-02T04:00:07.545Z,99437.03
2023-04-02T04:03:36.595Z,99443.16
2023-04-02T04:06:49.217Z,99445.37
2023-04-02T04:10:07.515Z,99454.47
2023-04-02T04:13:27.516Z,99446.84
2023-04-02T04:16:53.553Z,99456.97
2023-04-02T04:20:21.543Z,99454.28
2023-04-02T04:23:44.517Z,99465.09
2023-04-02T04:26:54.736Z,99463.53
2023-04-02T04:30:22.501Z,99463.62
2023-04-02T04:33:38.915Z,99472.72
2023-04-02T04:37:01.545Z,99473.22
2023-04-02T04:40:34.503Z,99476.38
2023-04-02T04:44:13.497Z,99474.03
2023-04-02T04:47:35.572Z,99476.91
2023-04-02T04:51:02.532Z,99475.63
2023-04-02T04:54:04.999Z,99477.66
2023-04-02T04:57:41.507Z,99482.63
2023-04-02T05:01:03.718Z,99481.13
2023-04-02T05:04:36.514Z,99487.28
2023-04-02T05:07:49.100Z,99482.06
2023-04-02T05:11:06.501Z,99480.94
2023-04-02T05:14:37.635Z,99484.44
2023-04-02T05:18:01.582Z,99475.25
2023-04-02T05:21:32.498Z,99498.34
2023-04-02T05:25:07.536Z,99494.44
2023-04-02T05:28:25.648Z,99496.19
2023-04-02T05:31:48.593Z,99506.50
2023-04-02T05:34:57.909Z,99500.81
2023-04-02T05:38:07.529Z,99492.53
2023-04-02T05:41:29.210Z,99495.66
2023-04-02T05:44:51.513Z,99502.72
2023-04-02T05:48:11.537Z,99497.37
2023-04-02T05:51:28.008Z,99509.69
2023-04-02T05:54:53.524Z,99513.75
2023-04-02T05:58:36.049Z,99512.53
2023-04-02T06:02:00.500Z,99512.87
2023-04-02T06:05:19.533Z,99509.41
2023-04-02T06:08:49.518Z,99517.34
2023-04-02T06:12:18.517Z,99520.72
2023-04-02T06:15:27.108Z,99516.31
2023-04-02T06:18:43.531Z,99514.94
2023-04-02T06:21:47.534Z,99522.41
2023-04-02T06:25:16.537Z,99516.47
2023-04-02T06:28:31.538Z,99522.91
2023-04-02T06:31:53.614Z,99525.50
2023-04-02T06:34:55.846Z,99537.66
2023-04-02T06:38:13.538Z,99539.06
2023-04-02T06:41:33.614Z,99548.22
2023-04-02T06:44:37.636Z,99546.13
2023-04-02T06:47:56.645Z,99543.84
2023-04-02T06:51:12.569Z,99540.53
2023-04-02T06:54:34.599Z,99551.41
2023-04-02T06:57:49.525Z,99556.75
2023-04-02T07:00:51.681Z,99532.94
2023-04-02T07:04:07.532Z,99548.44
2023-04-02T07:07:16.102Z,99550.94
2023-04-02T07:10:24.609Z,99554.09
2023-04-02T07:13:33.275Z,99557.03
2023-04-02T07:16:41.634Z,99554.13
2023-04-02T07:19:56.530Z,99552.69
2023-04-02T07:23:07.619Z,99552.53
2023-04-02T07:26:41.536Z,99545.78
2023-04-02T07:29:50.552Z,99563.84
2023-04-02T07:33:05.551Z,99570.75
2023-04-02T07:36:23.603Z,99571.63
2023-04-02T07:39:25.544Z,99568.03
2023-04-02T07:42:40.580Z,99573.91
2023-04-02T07:45:57.591Z,99579.91
2023-04-02T07:48:59.684Z,99584.81
2023-04-02T07:52:14.526Z,99575.16
2023-04-02T07:55:29.851Z,99586.56
2023-04-02T07:58:44.530Z,99585.72
2023-04-02T08:01:53.327Z,99593.69
2023-04-02T08:05:08.539Z,99582.37
2023-04-02T08:08:23.559Z,99599.75
2023-04-02T08:11:32.440Z,99602.28
2023-04-02T08:14:40.552Z,99609.59
2023-04-02T08:17:55.606Z,99607.88
2023-04-02T08:21:07.529Z,99615.03
2023-04-02T08:24:24.572Z,99615.38
2023-04-02T08:27:33.182Z,99612.87
2023-04-02T08:30:48.625Z,99622.78
2023-04-02T08:33:50.706Z,99620.81
2023-04-02T08:37:05.568Z,99629.63
2023-04-02T08:40:22.626Z,99621.47
2023-04-02T08:44:07.541Z,99622.78
2023-04-02T08:47:25.577Z,99627.84
2023-04-02T08:50:49.567Z,99634.50
2023-04-02T08:54:17.613Z,99630.78
2023-04-02T08:57:41.570Z,99623.22
2023-04-02T09:01:01.564Z,99627.31
2023-04-02T09:04:13.598Z,99631.00
2023-04-02T09:07:28.606Z,99632.50
2023-04-02T09:10:45.600Z,99631.78
2023-04-02T09:14:04.619Z,99619.06
2023-04-02T09:17:25.546Z,99628.91
2023-04-02T09:20:28.110Z,99628.13
2023-04-02T09:23:42.612Z,99629.75
2023-04-02T09:26:57.565Z,99625.84
2023-04-02T09:30:17.598Z,99624.03
2023-04-02T09:33:43.996Z,99629.03
2023-04-02T09:36:58.564Z,99636.66
2023-04-02T09:40:16.869Z,99637.47
2023-04-02T09:43:28.870Z,99644.03
2023-04-02T09:46:43.618Z,99643.34
2023-04-02T09:49:53.870Z,99651.63
2023-04-02T09:53:31.257Z,99648.03
2023-04-02T09:57:23.599Z,99652.41
2023-04-02T10:00:32.888Z,99664.94
2023-04-02T10:03:43.241Z,99670.75
2023-04-02T10:06:56.568Z,99662.31
2023-04-02T10:10:43.553Z,99668.19
2023-04-02T10:13:48.737Z,99666.50
2023-04-02T10:17:09.610Z,99666.59
2023-04-02T10:20:22.891Z,99655.47
2023-04-02T10:23:38.560Z,99655.47
2023-04-02T10:27:32.574Z,99654.12
2023-04-02T10:31:10.874Z,99653.97
2023-04-02T10:34:31.557Z,99664.91
2023-04-02T10:37:46.216Z,99652.75
2023-04-02T10:41:19.735Z,99653.78
2023-04-02T10:44:40.618Z,99649.03
2023-04-02T10:48:01.010Z,99642.69
2023-04-02T10:51:23.602Z,99645.66
2023-04-02T10:54:54.373Z,99644.75
2023-04-02T10:58:11.597Z,99646.78
2023-04-02T11:01:34.900Z,99646.94
2023-04-02T11:04:53.976Z,99644.94
2023-04-02T11:08:13.203Z,99653.94
2023-04-02T11:11:40.591Z,99650.28
2023-04-02T11:15:00.610Z,99647.03
2023-04-02T11:18:09.699Z,99657.31
2023-04-02T11:21:44.861Z,99649.59
2023-04-02T11:25:07.623Z,99643.97
2023-04-02T11:28:38.568Z,99648.03
2023-04-02T11:31:55.710Z,99633.31
2023-04-02T11:35:32.706Z,99635.44
2023-04-02T11:39:01.884Z,99633.25
2023-04-02T11:42:25.861Z,99626.94
2023-04-02T11:45:51.918Z,99624.62
2023-04-02T11:49:40.656Z,99630.69
2023-04-02T11:52:49.491Z,99621.81
2023-04-02T11:56:23.587Z,99622.97
2023-04-02T11:59:55.822Z,99625.88
2023-04-02T12:03:35.586Z,99627.72
2023-04-02T12:06:50.718Z,99620.34
2023-04-02T12:10:04.664Z,99625.59
2023-04-02T12:13:46.616Z,99627.53
2023-04-02T12:17:02.657Z,99613.00
2023-04-02T12:20:17.606Z,99591.19
2023-04-02T12:23:32.911Z,99609.38
2023-04-02T12:26:48.886Z,99607.16
2023-04-02T12:30:21.679Z,99601.72
2023-04-02T12:33:44.652Z,99597.97
2023-04-02T12:36:58.646Z,99596.13
2023-04-02T12:40:23.577Z,99594.38
2023-04-02T12:43:37.148Z,99584.69
2023-04-02T12:46:46.618Z,99592.56
2023-04-02T12:49:58.558Z,99589.06
2023-04-02T12:53:07.588Z,99580.47
2023-04-02T12:56:23.495Z,99562.78
2023-04-02T12:59:43.602Z,99585.25
2023-04-02T13:03:02.456Z,99591.88
2023-04-02T13:06:28.617Z,99587.88
2023-04-02T13:09:47.737Z,99586.03
2023-04-02T13:13:09.596Z,99589.41
2023-04-02T13:16:18.157Z,99582.63
2023-04-02T13:19:40.661Z,99596.31
2023-04-02T13:22:42.659Z,99587.16
2023-04-02T13:25:58.615Z,99584.88
2023-04-02T13:29:17.638Z,99588.69
2023-04-02T13:32:32.875Z,99588.34
2023-04-02T13:35:48.629Z,99581.28
2023-04-02T13:38:57.708Z,99590.03
2023-04-02T13:42:06.733Z,99596.34
2023-04-02T13:45:45.654Z,99591.88
2023-04-02T13:48:54.630Z,99596.97
2023-04-02T13:52:04.007Z,99596.78
2023-04-02T13:55:29.988Z,99596.91
2023-04-02T13:58:38.326Z,99597.50
2023-04-02T14:01:55.084Z,99591.75
2023-04-02T14:05:28.286Z,99593.06
2023-04-02T14:09:09.665Z,99594.44
2023-04-02T14:12:55.658Z,99588.69
2023-04-02T14:16:33.649Z,99590.53
2023-04-02T14:20:14.672Z,99593.84
2023-04-02T14:23:34.631Z,99592.62
2023-04-02T14:27:17.621Z,99589.22
2023-04-02T14:30:38.089Z,99590.47
2023-04-02T14:34:14.909Z,99579.63
2023-04-02T14:37:40.879Z,99600.62
2023-04-02T14:41:13.544Z,99599.38
2023-04-02T14:44:32.658Z,99603.91
2023-04-02T14:47:52.095Z,99604.66
2023-04-02T14:51:12.636Z,99620.44
2023-04-02T14:54:36.623Z,99627.31
2023-04-02T14:58:01.034Z,99639.78
2023-04-02T15:01:15.330Z,99662.62
2023-04-02T15:04:37.806Z,99665.72
2023-04-02T15:08:01.807Z,99668.09
2023-04-02T15:11:40.649Z,99686.47
2023-04-02T15:15:03.643Z,99684.72
2023-04-02T15:18:23.842Z,99702.19
2023-04-02T15:21:57.663Z,99701.66
2023-04-02T15:25:21.090Z,99701.22
2023-04-02T15:29:00.335Z,99718.09
2023-04-02T15:32:25.156Z,99725.09
2023-04-02T15:35:51.502Z,99722.56
2023-04-02T15:39:10.593Z,99735.53
2023-04-02T15:42:26.548Z,99744.16
2023-04-02T15:45:52.094Z,99757.87
2023-04-02T15:49:27.093Z,99743.97
2023-04-02T15:52:49.390Z,99736.47
2023-04-02T15:56:26.800Z,99738.53
2023-04-02T15:59:57.129Z,99748.31
2023-04-02T16:03:32.887Z,99743.88
2023-04-02T16:07:11.724Z,99741.63
2023-04-02T16:10:18.006Z,99741.00
2023-04-02T16:13:41.820Z,99736.72
2023-04-02T16:16:52.929Z,99736.59
2023-04-02T16:20:12.833Z,99730.31
2023-04-02T16:23:40.537Z,99712.31
2023-04-02T16:27:09.613Z,99729.13
2023-04-02T16:30:40.043Z,99726.63
2023-04-02T16:34:14.841Z,99729.69
2023-04-02T16:37:37.164Z,99736.00
2023-04-02T16:41:20.130Z,99748.69
2023-04-02T16:44:53.091Z,99763.22
2023-04-02T16:48:14.347Z,99779.50
2023-04-02T16:51:39.485Z,99777.94
2023-04-02T16:55:04.857Z,99787.66
2023-04-02T16:58:32.095Z,99784.34
2023-04-02T17:01:54.213Z,99789.66
2023-04-02T17:05:24.121Z,99779.50
2023-04-02T17:08:37.481Z,99793.59
2023-04-02T17:12:01.052Z,99792.44
2023-04-02T17:15:27.689Z,99805.03
2023-04-02T17:18:45.624Z,99806.28
2023-04-02T17:22:00.109Z,99814.62
2023-04-02T17:25:28.092Z,99815.06
2023-04-02T17:28:46.021Z,99814.06
2023-04-02T17:31:50.415Z,99819.72
2023-04-02T17:35:46.716Z,99822.38
2023-04-02T17:39:30.109Z,99833.09
2023-04-02T17:42:51.989Z,99832.94
2023-04-02T17:46:41.089Z,99833.53
2023-04-02T17:50:14.140Z,99840.25
2023-04-02T17:53:19.181Z,99850.13
2023-04-02T17:56:41.071Z,99857.22
2023-04-02T18:00:19.917Z,99856.50
2023-04-02T18:03:54.704Z,99856.06
2023-04-02T18:07:33.657Z,99864.19
2023-04-02T18:11:01.258Z,99872.44
2023-04-02T18:14:36.656Z,99879.03
2023-04-02T18:18:04.213Z,99899.25
2023-04-02T18:21:37.158Z,99894.63
2023-04-02T18:25:14.856Z,99909.81
2023-04-02T18:28:48.722Z,99914.75
2023-04-02T18:32:18.815Z,99917.94
2023-04-02T18:35:45.157Z,99918.16
2023-04-02T18:39:22.651Z,99926.97
2023-04-02T18:43:04.163Z,99924.87
2023-04-02T18:46:25.704Z,99929.91
2023-04-02T18:49:54.127Z,99927.22
2023-04-02T18:53:19.190Z,99940.28
2023-04-02T18:56:46.686Z,99945.88
2023-04-02T19:00:10.653Z,99960.28
2023-04-02T19:03:38.348Z,99958.84
2023-04-02T19:07:16.833Z,99957.75
2023-04-02T19:10:45.268Z,99968.06
2023-04-02T19:14:05.858Z,99969.63
2023-04-02T19:17:40.958Z,99974.84
2023-04-02T19:20:58.685Z,99978.81
2023-04-02T19:24:45.043Z,99975.28
2023-04-02T19:28:24.647Z,99985.47
2023-04-02T19:32:16.052Z,99987.97
2023-04-02T19:35:36.440Z,99997.94
2023-04-02T19:38:52.072Z,100004.72
2023-04-02T19:42:11.096Z,100007.91
2023-04-02T19:45:44.894Z,100008.69
2023-04-02T19:49:21.726Z,100000.53
2023-04-02T19:52:37.741Z,100022.28
2023-04-02T19:55:48.192Z,100025.47
2023-04-02T19:59:17.154Z,100035.19
2023-04-02T20:02:26.988Z,100037.41
2023-04-02T20:05:43.025Z,100042.81
2023-04-02T20:08:46.745Z,100042.53
2023-04-02T20:12:02.169Z,100051.00
2023-04-02T20:15:20.100Z,100055.31
2023-04-02T20:18:35.946Z,100053.00
2023-04-02T20:21:44.666Z,100060.50
2023-04-02T20:24:53.689Z,100076.09
2023-04-02T20:28:09.923Z,100071.25
2023-04-02T20:31:18.885Z,100079.31
2023-04-02T20:34:33.840Z,100078.78
2023-04-02T20:37:49.116Z,100081.44
2023-04-02T20:40:54.747Z,100088.37
2023-04-02T20:44:11.040Z,100083.12
2023-04-02T20:47:19.668Z,100098.81
2023-04-02T20:50:28.880Z,100104.00
2023-04-02T20:53:39.747Z,100109.06
2023-04-02T20:56:49.075Z,100119.53
2023-04-02T21:00:03.666Z,100098.53
2023-04-02T21:03:18.669Z,100136.03
2023-04-02T21:06:39.655Z,100130.44
2023-04-02T21:09:54.685Z,100133.44
2023-04-02T21:13:03.272Z,100143.13
2023-04-02T21:16:18.725Z,100141.81
2023-04-02T21:19:33.637Z,100138.87
2023-04-02T21:22:35.925Z,100148.03
2023-04-02T21:26:03.656Z,100153.88
2023-04-02T21:29:06.321Z,100133.09
2023-04-02T21:32:22.180Z,100147.25
2023-04-02T21:35:37.868Z,100156.63
2023-04-02T21:38:55.673Z,100156.84
2023-04-02T21:42:10.676Z,100161.88
2023-04-02T21:45:12.493Z,100157.62
2023-04-02T21:48:27.682Z,100171.72
2023-04-02T21:51:44.666Z,100169.06
2023-04-02T21:54:53.325Z,100172.56
2023-04-02T21:58:08.655Z,100181.72
2023-04-02T22:01:26.593Z,100183.94
2023-04-02T22:04:42.661Z,100189.56
2023-04-02T22:07:51.663Z,100191.72
2023-04-02T22:11:11.268Z,100194.16
2023-04-02T22:14:25.696Z,100200.00
2023-04-02T22:17:34.314Z,100208.06
2023-04-02T22:20:44.682Z,100210.88
2023-04-02T22:23:53.700Z,100220.50
2023-04-02T22:27:01.691Z,100203.94
2023-04-02T22:30:10.597Z,100217.81
2023-04-02T22:33:19.671Z,100219.13
2023-04-02T22:36:36.651Z,100226.87
2023-04-02T22:39:45.530Z,100229.00
2023-04-02T22:42:53.694Z,100233.81
2023-04-02T22:46:09.640Z,100234.66
2023-04-02T22:49:18.719Z,100240.56
2023-04-02T22:52:27.216Z,100228.00
2023-04-02T22:55:41.668Z,100238.66
2023-04-02T22:59:03.646Z,100242.94
2023-04-02T23:02:12.310Z,100239.22
2023-04-02T23:05:21.678Z,100249.09
2023-04-02T23:08:36.657Z,100252.28
2023-04-02T23:11:38.575Z,100230.94
2023-04-02T23:14:53.674Z,100258.97
2023-04-02T23:17:55.617Z,100233.09
2023-04-02T23:21:11.661Z,100262.69
2023-04-02T23:24:20.658Z,100265.62
2023-04-02T23:27:35.662Z,100273.34
2023-04-02T23:30:37.870Z,100273.91
2023-04-02T23:33:52.730Z,100270.16
2023-04-02T23:37:00.659Z,100282.44
2023-04-02T23:40:09.941Z,100279.25
2023-04-02T23:43:24.675Z,100279.75
2023-04-02T23:46:33.699Z,100280.84
2023-04-02T23:49:48.680Z,100289.38
2023-04-02T23:52:50.634Z,100284.31
2023-04-02T23:56:05.657Z,100280.81
2023-04-02T23:59:20.691Z,100270.19
